sensor_id;sensor_type;location;lat;lon;timestamp;temperature;humidity
23283;DHT22;11810;51.178;3.878;2023-07-16T00:01:52;16.70;99.90
23283;DHT22;11810;51.178;3.878;2023-07-16T00:04:18;16.70;99.90
23283;DHT22;11810;51.178;3.878;2023-07-16T00:06:44;16.70;99.90
23283;DHT22;11810;51.178;3.878;2023-07-16T00:09:10;16.60;99.90
23283;DHT22;11810;51.178;3.878;2023-07-16T00:11:36;16.60;99.90
23283;DHT22;11810;51.178;3.878;2023-07-16T00:14:02;16.70;99.90
23283;DHT22;11810;51.178;3.878;2023-07-16T00:16:28;16.50;99.90
23283;DHT22;11810;51.178;3.878;2023-07-16T00:18:54;16.50;99.90
23283;DHT22;11810;51.178;3.878;2023-07-16T00:21:20;16.50;99.90
23283;DHT22;11810;51.178;3.878;2023-07-16T00:23:46;16.50;99.90
23283;DHT22;11810;51.178;3.878;2023-07-16T00:26:13;16.50;99.90
23283;DHT22;11810;51.178;3.878;2023-07-16T00:28:39;16.50;99.90
23283;DHT22;11810;51.178;3.878;2023-07-16T00:31:05;16.40;99.90
23283;DHT22;11810;51.178;3.878;2023-07-16T00:33:31;16.40;99.90
23283;DHT22;11810;51.178;3.878;2023-07-16T00:35:57;16.40;99.90
23283;DHT22;11810;51.178;3.878;2023-07-16T00:38:23;16.30;99.90
23283;DHT22;11810;51.178;3.878;2023-07-16T00:40:49;16.30;99.90
23283;DHT22;11810;51.178;3.878;2023-07-16T00:43:15;16.30;99.90
23283;DHT22;11810;51.178;3.878;2023-07-16T00:45:41;16.40;99.90
23283;DHT22;11810;51.178;3.878;2023-07-16T00:48:10;16.50;99.90
23283;DHT22;11810;51.178;3.878;2023-07-16T00:50:38;16.40;99.90
23283;DHT22;11810;51.178;3.878;2023-07-16T00:53:09;16.20;99.90
23283;DHT22;11810;51.178;3.878;2023-07-16T00:55:36;16.30;99.90
23283;DHT22;11810;51.178;3.878;2023-07-16T00:58:05;16.30;99.90
23283;DHT22;11810;51.178;3.878;2023-07-16T01:00:35;16.30;99.90
23283;DHT22;11810;51.178;3.878;2023-07-16T01:03:06;16.30;99.90
23283;DHT22;11810;51.178;3.878;2023-07-16T01:06:30;16.30;99.90
23283;DHT22;11810;51.178;3.878;2023-07-16T01:08:55;16.30;99.90
23283;DHT22;11810;51.178;3.878;2023-07-16T01:11:24;16.30;99.90
23283;DHT22;11810;51.178;3.878;2023-07-16T01:13:50;16.30;99.90
23283;DHT22;11810;51.178;3.878;2023-07-16T01:16:21;16.40;99.90
23283;DHT22;11810;51.178;3.878;2023-07-16T01:18:48;16.30;99.90
23283;DHT22;11810;51.178;3.878;2023-07-16T01:21:16;16.20;99.90
23283;DHT22;11810;51.178;3.878;2023-07-16T01:26:47;16.40;99.90
23283;DHT22;11810;51.178;3.878;2023-07-16T01:29:52;16.50;99.90
23283;DHT22;11810;51.178;3.878;2023-07-16T01:32:21;16.50;99.90
23283;DHT22;11810;51.178;3.878;2023-07-16T01:34:47;16.50;99.90
23283;DHT22;11810;51.178;3.878;2023-07-16T01:37:14;16.50;99.90
23283;DHT22;11810;51.178;3.878;2023-07-16T01:39:40;16.60;99.90
23283;DHT22;11810;51.178;3.878;2023-07-16T01:42:06;16.50;99.90
23283;DHT22;11810;51.178;3.878;2023-07-16T01:44:32;16.50;99.90
23283;DHT22;11810;51.178;3.878;2023-07-16T01:50:10;16.60;99.90
23283;DHT22;11810;51.178;3.878;2023-07-16T01:52:36;16.70;99.90
23283;DHT22;11810;51.178;3.878;2023-07-16T01:55:02;16.80;99.90
23283;DHT22;11810;51.178;3.878;2023-07-16T01:57:28;16.80;99.90
23283;DHT22;11810;51.178;3.878;2023-07-16T01:59:54;16.80;99.90
23283;DHT22;11810;51.178;3.878;2023-07-16T02:02:20;16.90;99.90
23283;DHT22;11810;51.178;3.878;2023-07-16T02:04:46;17.00;99.90
23283;DHT22;11810;51.178;3.878;2023-07-16T02:07:12;17.20;99.90
23283;DHT22;11810;51.178;3.878;2023-07-16T02:09:38;17.30;99.90
23283;DHT22;11810;51.178;3.878;2023-07-16T02:12:04;17.50;99.90
23283;DHT22;11810;51.178;3.878;2023-07-16T02:14:30;17.40;99.90
23283;DHT22;11810;51.178;3.878;2023-07-16T02:16:56;17.40;99.90
23283;DHT22;11810;51.178;3.878;2023-07-16T02:19:22;17.40;99.90
23283;DHT22;11810;51.178;3.878;2023-07-16T02:21:48;17.40;99.90
23283;DHT22;11810;51.178;3.878;2023-07-16T02:24:14;17.30;99.90
23283;DHT22;11810;51.178;3.878;2023-07-16T02:26:41;17.20;99.90
23283;DHT22;11810;51.178;3.878;2023-07-16T02:29:07;17.20;99.90
23283;DHT22;11810;51.178;3.878;2023-07-16T02:31:35;17.10;99.90
23283;DHT22;11810;51.178;3.878;2023-07-16T02:34:01;16.90;99.90
23283;DHT22;11810;51.178;3.878;2023-07-16T02:36:27;16.90;99.90
23283;DHT22;11810;51.178;3.878;2023-07-16T02:38:53;17.10;99.90
23283;DHT22;11810;51.178;3.878;2023-07-16T02:41:19;17.10;99.90
23283;DHT22;11810;51.178;3.878;2023-07-16T02:43:46;17.10;99.90
23283;DHT22;11810;51.178;3.878;2023-07-16T02:46:12;17.20;99.90
23283;DHT22;11810;51.178;3.878;2023-07-16T02:48:38;17.10;99.90
23283;DHT22;11810;51.178;3.878;2023-07-16T02:51:04;17.10;99.90
23283;DHT22;11810;51.178;3.878;2023-07-16T02:53:30;17.20;99.90
23283;DHT22;11810;51.178;3.878;2023-07-16T02:55:56;17.20;99.90
23283;DHT22;11810;51.178;3.878;2023-07-16T02:58:22;17.30;99.90
23283;DHT22;11810;51.178;3.878;2023-07-16T03:00:47;17.40;99.90
23283;DHT22;11810;51.178;3.878;2023-07-16T03:03:13;17.30;99.90
23283;DHT22;11810;51.178;3.878;2023-07-16T03:05:39;17.30;99.90
23283;DHT22;11810;51.178;3.878;2023-07-16T03:08:05;17.30;99.90
23283;DHT22;11810;51.178;3.878;2023-07-16T03:10:31;17.20;99.90
23283;DHT22;11810;51.178;3.878;2023-07-16T03:12:57;16.80;99.90
23283;DHT22;11810;51.178;3.878;2023-07-16T03:15:23;16.90;99.90
23283;DHT22;11810;51.178;3.878;2023-07-16T03:17:49;16.90;99.90
23283;DHT22;11810;51.178;3.878;2023-07-16T03:20:15;16.80;99.90
23283;DHT22;11810;51.178;3.878;2023-07-16T03:22:41;16.90;99.90
23283;DHT22;11810;51.178;3.878;2023-07-16T03:25:08;16.90;99.90
23283;DHT22;11810;51.178;3.878;2023-07-16T03:27:34;17.00;99.90
23283;DHT22;11810;51.178;3.878;2023-07-16T03:29:59;17.20;99.90
23283;DHT22;11810;51.178;3.878;2023-07-16T03:32:25;17.20;99.90
23283;DHT22;11810;51.178;3.878;2023-07-16T03:34:51;17.30;99.90
23283;DHT22;11810;51.178;3.878;2023-07-16T03:37:17;17.40;99.90
23283;DHT22;11810;51.178;3.878;2023-07-16T03:39:43;17.30;99.90
23283;DHT22;11810;51.178;3.878;2023-07-16T03:42:09;17.30;99.90
23283;DHT22;11810;51.178;3.878;2023-07-16T03:44:35;17.40;99.90
23283;DHT22;11810;51.178;3.878;2023-07-16T03:47:01;17.20;99.90
23283;DHT22;11810;51.178;3.878;2023-07-16T03:49:27;17.20;99.90
23283;DHT22;11810;51.178;3.878;2023-07-16T03:51:53;17.10;99.90
23283;DHT22;11810;51.178;3.878;2023-07-16T03:54:19;17.00;99.90
23283;DHT22;11810;51.178;3.878;2023-07-16T03:56:45;17.00;99.90
23283;DHT22;11810;51.178;3.878;2023-07-16T03:59:11;17.00;99.90
23283;DHT22;11810;51.178;3.878;2023-07-16T04:01:37;16.90;99.90
23283;DHT22;11810;51.178;3.878;2023-07-16T04:04:02;16.80;99.90
23283;DHT22;11810;51.178;3.878;2023-07-16T04:06:28;16.90;99.90
23283;DHT22;11810;51.178;3.878;2023-07-16T04:08:54;16.80;99.90
23283;DHT22;11810;51.178;3.878;2023-07-16T04:11:20;16.80;99.90
23283;DHT22;11810;51.178;3.878;2023-07-16T04:13:46;16.70;99.90
23283;DHT22;11810;51.178;3.878;2023-07-16T04:16:12;16.80;99.90
23283;DHT22;11810;51.178;3.878;2023-07-16T04:18:38;16.70;99.90
23283;DHT22;11810;51.178;3.878;2023-07-16T04:21:04;16.70;99.90
23283;DHT22;11810;51.178;3.878;2023-07-16T04:23:30;16.70;99.90
23283;DHT22;11810;51.178;3.878;2023-07-16T04:25:56;16.70;99.90
23283;DHT22;11810;51.178;3.878;2023-07-16T04:28:22;16.80;99.90
23283;DHT22;11810;51.178;3.878;2023-07-16T04:30:48;16.90;99.90
23283;DHT22;11810;51.178;3.878;2023-07-16T04:33:14;17.00;99.90
23283;DHT22;11810;51.178;3.878;2023-07-16T04:35:40;17.10;99.90
23283;DHT22;11810;51.178;3.878;2023-07-16T04:38:06;17.00;99.90
23283;DHT22;11810;51.178;3.878;2023-07-16T04:40:33;17.00;99.90
23283;DHT22;11810;51.178;3.878;2023-07-16T04:42:59;17.10;99.90
23283;DHT22;11810;51.178;3.878;2023-07-16T04:45:25;17.00;99.90
23283;DHT22;11810;51.178;3.878;2023-07-16T04:47:51;17.10;99.90
23283;DHT22;11810;51.178;3.878;2023-07-16T04:50:17;17.20;99.90
23283;DHT22;11810;51.178;3.878;2023-07-16T04:52:43;17.50;99.90
23283;DHT22;11810;51.178;3.878;2023-07-16T04:55:09;17.40;99.90
23283;DHT22;11810;51.178;3.878;2023-07-16T04:57:35;17.50;99.90
23283;DHT22;11810;51.178;3.878;2023-07-16T05:00:01;17.50;99.90
23283;DHT22;11810;51.178;3.878;2023-07-16T05:02:28;17.30;99.90
23283;DHT22;11810;51.178;3.878;2023-07-16T05:04:54;17.20;99.90
23283;DHT22;11810;51.178;3.878;2023-07-16T05:07:20;17.20;99.90
23283;DHT22;11810;51.178;3.878;2023-07-16T05:09:46;17.30;99.90
23283;DHT22;11810;51.178;3.878;2023-07-16T05:12:12;17.30;99.90
23283;DHT22;11810;51.178;3.878;2023-07-16T05:14:47;17.40;99.90
23283;DHT22;11810;51.178;3.878;2023-07-16T05:17:13;17.50;99.90
23283;DHT22;11810;51.178;3.878;2023-07-16T05:19:40;17.50;99.90
23283;DHT22;11810;51.178;3.878;2023-07-16T05:22:06;17.70;99.90
23283;DHT22;11810;51.178;3.878;2023-07-16T05:24:32;17.80;99.90
23283;DHT22;11810;51.178;3.878;2023-07-16T05:26:58;17.90;99.90
23283;DHT22;11810;51.178;3.878;2023-07-16T05:29:24;18.10;99.90
23283;DHT22;11810;51.178;3.878;2023-07-16T05:31:50;18.40;99.90
23283;DHT22;11810;51.178;3.878;2023-07-16T05:34:16;18.50;99.90
23283;DHT22;11810;51.178;3.878;2023-07-16T05:36:42;18.60;99.90
23283;DHT22;11810;51.178;3.878;2023-07-16T05:39:12;18.80;99.90
23283;DHT22;11810;51.178;3.878;2023-07-16T05:41:40;19.00;99.90
23283;DHT22;11810;51.178;3.878;2023-07-16T05:44:07;19.10;99.90
23283;DHT22;11810;51.178;3.878;2023-07-16T05:46:34;19.40;99.90
23283;DHT22;11810;51.178;3.878;2023-07-16T05:48:59;19.70;99.90
23283;DHT22;11810;51.178;3.878;2023-07-16T05:51:25;19.90;99.90
23283;DHT22;11810;51.178;3.878;2023-07-16T05:53:51;20.20;99.90
23283;DHT22;11810;51.178;3.878;2023-07-16T05:56:17;20.50;99.90
23283;DHT22;11810;51.178;3.878;2023-07-16T05:58:43;20.60;99.90
23283;DHT22;11810;51.178;3.878;2023-07-16T06:01:09;20.50;99.90
23283;DHT22;11810;51.178;3.878;2023-07-16T06:03:35;20.70;99.90
23283;DHT22;11810;51.178;3.878;2023-07-16T06:06:01;20.80;99.90
23283;DHT22;11810;51.178;3.878;2023-07-16T06:08:27;20.80;99.90
23283;DHT22;11810;51.178;3.878;2023-07-16T06:10:53;20.90;99.90
23283;DHT22;11810;51.178;3.878;2023-07-16T06:13:19;21.00;99.90
23283;DHT22;11810;51.178;3.878;2023-07-16T06:15:48;21.40;99.90
23283;DHT22;11810;51.178;3.878;2023-07-16T06:18:14;21.30;99.90
23283;DHT22;11810;51.178;3.878;2023-07-16T06:20:44;21.40;99.90
23283;DHT22;11810;51.178;3.878;2023-07-16T06:23:11;21.60;99.90
23283;DHT22;11810;51.178;3.878;2023-07-16T06:25:37;21.80;99.90
23283;DHT22;11810;51.178;3.878;2023-07-16T06:28:04;22.20;99.90
23283;DHT22;11810;51.178;3.878;2023-07-16T06:30:29;22.30;99.90
23283;DHT22;11810;51.178;3.878;2023-07-16T06:32:58;21.40;99.90
23283;DHT22;11810;51.178;3.878;2023-07-16T06:35:24;21.40;99.90
23283;DHT22;11810;51.178;3.878;2023-07-16T06:37:50;21.40;99.90
23283;DHT22;11810;51.178;3.878;2023-07-16T06:40:16;21.20;99.90
23283;DHT22;11810;51.178;3.878;2023-07-16T06:42:41;21.40;99.90
23283;DHT22;11810;51.178;3.878;2023-07-16T06:45:08;21.60;99.90
23283;DHT22;11810;51.178;3.878;2023-07-16T06:47:34;22.00;99.90
23283;DHT22;11810;51.178;3.878;2023-07-16T06:50:00;22.40;99.90
23283;DHT22;11810;51.178;3.878;2023-07-16T06:52:26;22.20;99.90
23283;DHT22;11810;51.178;3.878;2023-07-16T06:54:56;22.60;99.90
23283;DHT22;11810;51.178;3.878;2023-07-16T06:57:23;22.40;99.90
23283;DHT22;11810;51.178;3.878;2023-07-16T06:59:49;22.50;99.90
23283;DHT22;11810;51.178;3.878;2023-07-16T07:02:16;22.40;99.90
23283;DHT22;11810;51.178;3.878;2023-07-16T07:04:42;22.40;99.90
23283;DHT22;11810;51.178;3.878;2023-07-16T07:07:08;22.70;99.90
23283;DHT22;11810;51.178;3.878;2023-07-16T07:09:34;23.00;99.90
23283;DHT22;11810;51.178;3.878;2023-07-16T07:12:00;23.20;99.90
23283;DHT22;11810;51.178;3.878;2023-07-16T07:14:26;22.70;99.90
23283;DHT22;11810;51.178;3.878;2023-07-16T07:16:52;21.90;99.90
23283;DHT22;11810;51.178;3.878;2023-07-16T07:19:18;22.20;99.90
23283;DHT22;11810;51.178;3.878;2023-07-16T07:21:44;23.00;99.90
23283;DHT22;11810;51.178;3.878;2023-07-16T07:24:10;23.20;99.90
23283;DHT22;11810;51.178;3.878;2023-07-16T07:26:36;23.60;99.90
23283;DHT22;11810;51.178;3.878;2023-07-16T07:29:02;24.00;99.90
23283;DHT22;11810;51.178;3.878;2023-07-16T07:31:28;24.50;99.90
23283;DHT22;11810;51.178;3.878;2023-07-16T07:33:54;24.60;99.90
23283;DHT22;11810;51.178;3.878;2023-07-16T07:36:23;24.00;99.90
23283;DHT22;11810;51.178;3.878;2023-07-16T07:38:48;24.90;99.90
23283;DHT22;11810;51.178;3.878;2023-07-16T07:41:14;24.60;99.90
23283;DHT22;11810;51.178;3.878;2023-07-16T07:43:40;24.70;99.90
23283;DHT22;11810;51.178;3.878;2023-07-16T07:46:06;24.50;99.90
23283;DHT22;11810;51.178;3.878;2023-07-16T07:48:32;24.60;99.90
23283;DHT22;11810;51.178;3.878;2023-07-16T07:50:58;23.90;99.90
23283;DHT22;11810;51.178;3.878;2023-07-16T07:53:24;24.10;99.90
23283;DHT22;11810;51.178;3.878;2023-07-16T07:55:50;24.60;99.90
23283;DHT22;11810;51.178;3.878;2023-07-16T07:58:16;24.20;99.90
23283;DHT22;11810;51.178;3.878;2023-07-16T08:00:42;23.40;99.90
23283;DHT22;11810;51.178;3.878;2023-07-16T08:03:08;23.30;99.90
23283;DHT22;11810;51.178;3.878;2023-07-16T08:05:33;23.20;99.90
23283;DHT22;11810;51.178;3.878;2023-07-16T08:07:59;22.80;99.90
23283;DHT22;11810;51.178;3.878;2023-07-16T08:10:25;22.50;99.90
23283;DHT22;11810;51.178;3.878;2023-07-16T08:12:51;23.30;99.90
23283;DHT22;11810;51.178;3.878;2023-07-16T08:15:18;24.10;99.90
23283;DHT22;11810;51.178;3.878;2023-07-16T08:17:45;23.20;99.90
23283;DHT22;11810;51.178;3.878;2023-07-16T08:20:11;23.10;99.90
23283;DHT22;11810;51.178;3.878;2023-07-16T08:22:38;23.30;99.90
23283;DHT22;11810;51.178;3.878;2023-07-16T08:25:05;23.00;99.90
23283;DHT22;11810;51.178;3.878;2023-07-16T08:27:31;22.80;99.90
23283;DHT22;11810;51.178;3.878;2023-07-16T08:29:57;22.30;99.90
23283;DHT22;11810;51.178;3.878;2023-07-16T08:32:23;22.10;99.90
23283;DHT22;11810;51.178;3.878;2023-07-16T08:34:49;22.50;99.90
23283;DHT22;11810;51.178;3.878;2023-07-16T08:37:15;22.40;99.90
23283;DHT22;11810;51.178;3.878;2023-07-16T08:39:41;22.20;99.90
23283;DHT22;11810;51.178;3.878;2023-07-16T08:42:09;22.00;99.90
23283;DHT22;11810;51.178;3.878;2023-07-16T08:44:38;21.60;99.90
23283;DHT22;11810;51.178;3.878;2023-07-16T08:47:05;21.20;99.90
23283;DHT22;11810;51.178;3.878;2023-07-16T08:49:35;21.10;99.90
23283;DHT22;11810;51.178;3.878;2023-07-16T08:52:02;20.80;99.90
23283;DHT22;11810;51.178;3.878;2023-07-16T08:54:28;20.80;99.90
23283;DHT22;11810;51.178;3.878;2023-07-16T08:56:54;20.70;99.90
23283;DHT22;11810;51.178;3.878;2023-07-16T08:59:21;20.80;99.90
23283;DHT22;11810;51.178;3.878;2023-07-16T09:01:48;20.70;99.90
23283;DHT22;11810;51.178;3.878;2023-07-16T09:04:15;20.60;99.90
23283;DHT22;11810;51.178;3.878;2023-07-16T09:06:42;21.00;99.90
23283;DHT22;11810;51.178;3.878;2023-07-16T09:09:10;21.00;99.90
23283;DHT22;11810;51.178;3.878;2023-07-16T09:11:46;21.10;99.90
23283;DHT22;11810;51.178;3.878;2023-07-16T09:14:18;20.70;99.90
23283;DHT22;11810;51.178;3.878;2023-07-16T09:16:48;20.70;99.90
23283;DHT22;11810;51.178;3.878;2023-07-16T09:19:14;20.30;99.90
23283;DHT22;11810;51.178;3.878;2023-07-16T09:21:45;19.70;99.90
23283;DHT22;11810;51.178;3.878;2023-07-16T09:24:11;19.50;99.90
23283;DHT22;11810;51.178;3.878;2023-07-16T09:26:38;19.10;99.90
23283;DHT22;11810;51.178;3.878;2023-07-16T09:29:07;19.20;99.90
23283;DHT22;11810;51.178;3.878;2023-07-16T09:31:33;19.30;99.90
23283;DHT22;11810;51.178;3.878;2023-07-16T09:33:59;19.60;99.90
23283;DHT22;11810;51.178;3.878;2023-07-16T09:36:25;19.60;99.90
23283;DHT22;11810;51.178;3.878;2023-07-16T09:38:53;19.50;99.90
23283;DHT22;11810;51.178;3.878;2023-07-16T09:41:21;19.20;99.90
23283;DHT22;11810;51.178;3.878;2023-07-16T09:43:47;18.60;99.90
23283;DHT22;11810;51.178;3.878;2023-07-16T09:46:13;18.20;99.90
23283;DHT22;11810;51.178;3.878;2023-07-16T09:48:39;18.00;99.90
23283;DHT22;11810;51.178;3.878;2023-07-16T09:51:07;17.90;99.90
23283;DHT22;11810;51.178;3.878;2023-07-16T09:53:36;18.00;99.90
23283;DHT22;11810;51.178;3.878;2023-07-16T09:56:04;18.60;99.90
23283;DHT22;11810;51.178;3.878;2023-07-16T09:58:31;19.20;99.90
23283;DHT22;11810;51.178;3.878;2023-07-16T10:00:58;19.80;99.90
23283;DHT22;11810;51.178;3.878;2023-07-16T10:03:25;19.70;99.90
23283;DHT22;11810;51.178;3.878;2023-07-16T10:05:51;19.90;99.90
23283;DHT22;11810;51.178;3.878;2023-07-16T10:08:18;20.20;99.90
23283;DHT22;11810;51.178;3.878;2023-07-16T10:10:58;20.60;99.90
23283;DHT22;11810;51.178;3.878;2023-07-16T10:13:24;20.70;99.90
23283;DHT22;11810;51.178;3.878;2023-07-16T10:15:56;20.90;99.90
23283;DHT22;11810;51.178;3.878;2023-07-16T10:20:49;20.90;99.90
23283;DHT22;11810;51.178;3.878;2023-07-16T10:23:18;21.50;99.90
23283;DHT22;11810;51.178;3.878;2023-07-16T10:26:04;22.20;99.90
23283;DHT22;11810;51.178;3.878;2023-07-16T10:28:32;22.10;99.90
23283;DHT22;11810;51.178;3.878;2023-07-16T10:30:58;21.90;99.90
23283;DHT22;11810;51.178;3.878;2023-07-16T10:33:24;21.60;99.90
23283;DHT22;11810;51.178;3.878;2023-07-16T10:35:50;21.30;99.90
23283;DHT22;11810;51.178;3.878;2023-07-16T10:38:16;21.40;99.90
23283;DHT22;11810;51.178;3.878;2023-07-16T10:40:43;23.00;99.90
23283;DHT22;11810;51.178;3.878;2023-07-16T10:43:10;24.00;99.90
23283;DHT22;11810;51.178;3.878;2023-07-16T10:45:36;25.00;99.90
23283;DHT22;11810;51.178;3.878;2023-07-16T10:48:02;25.50;99.90
23283;DHT22;11810;51.178;3.878;2023-07-16T10:50:31;25.60;99.90
23283;DHT22;11810;51.178;3.878;2023-07-16T10:52:57;26.00;99.90
23283;DHT22;11810;51.178;3.878;2023-07-16T10:55:25;26.90;99.90
23283;DHT22;11810;51.178;3.878;2023-07-16T10:57:51;27.60;99.90
23283;DHT22;11810;51.178;3.878;2023-07-16T11:00:20;27.50;99.90
23283;DHT22;11810;51.178;3.878;2023-07-16T11:02:46;26.40;99.90
23283;DHT22;11810;51.178;3.878;2023-07-16T11:05:13;26.00;99.90
23283;DHT22;11810;51.178;3.878;2023-07-16T11:07:47;26.50;99.90
23283;DHT22;11810;51.178;3.878;2023-07-16T11:10:16;26.80;99.90
23283;DHT22;11810;51.178;3.878;2023-07-16T11:12:42;27.80;99.90
23283;DHT22;11810;51.178;3.878;2023-07-16T11:15:08;27.50;99.90
23283;DHT22;11810;51.178;3.878;2023-07-16T11:17:38;27.00;99.90
23283;DHT22;11810;51.178;3.878;2023-07-16T11:20:07;26.90;99.90
23283;DHT22;11810;51.178;3.878;2023-07-16T11:22:37;27.50;99.90
23283;DHT22;11810;51.178;3.878;2023-07-16T11:25:10;28.00;99.90
23283;DHT22;11810;51.178;3.878;2023-07-16T11:27:36;28.20;99.90
23283;DHT22;11810;51.178;3.878;2023-07-16T11:30:06;27.80;99.90
23283;DHT22;11810;51.178;3.878;2023-07-16T11:32:37;28.10;99.90
23283;DHT22;11810;51.178;3.878;2023-07-16T11:35:05;28.10;99.90
23283;DHT22;11810;51.178;3.878;2023-07-16T11:37:33;28.30;99.90
23283;DHT22;11810;51.178;3.878;2023-07-16T11:40:05;27.60;99.90
23283;DHT22;11810;51.178;3.878;2023-07-16T11:42:36;26.50;99.90
23283;DHT22;11810;51.178;3.878;2023-07-16T11:45:04;25.70;99.90
23283;DHT22;11810;51.178;3.878;2023-07-16T11:47:30;25.20;99.90
23283;DHT22;11810;51.178;3.878;2023-07-16T11:49:56;24.70;99.90
23283;DHT22;11810;51.178;3.878;2023-07-16T11:52:30;24.40;99.90
23283;DHT22;11810;51.178;3.878;2023-07-16T11:54:57;23.90;99.90
23283;DHT22;11810;51.178;3.878;2023-07-16T11:57:27;23.50;99.90
23283;DHT22;11810;51.178;3.878;2023-07-16T11:59:53;23.30;99.90
23283;DHT22;11810;51.178;3.878;2023-07-16T12:02:20;23.20;99.90
23283;DHT22;11810;51.178;3.878;2023-07-16T12:04:46;23.00;99.90
23283;DHT22;11810;51.178;3.878;2023-07-16T12:07:12;22.90;99.90
23283;DHT22;11810;51.178;3.878;2023-07-16T12:09:39;23.40;99.90
23283;DHT22;11810;51.178;3.878;2023-07-16T12:12:05;24.70;99.90
23283;DHT22;11810;51.178;3.878;2023-07-16T12:14:32;25.40;99.90
23283;DHT22;11810;51.178;3.878;2023-07-16T12:16:58;26.20;99.90
23283;DHT22;11810;51.178;3.878;2023-07-16T12:19:24;26.70;99.90
23283;DHT22;11810;51.178;3.878;2023-07-16T12:21:50;26.80;99.90
23283;DHT22;11810;51.178;3.878;2023-07-16T12:24:17;27.10;99.90
23283;DHT22;11810;51.178;3.878;2023-07-16T12:26:43;27.00;99.90
23283;DHT22;11810;51.178;3.878;2023-07-16T12:29:09;27.50;99.90
23283;DHT22;11810;51.178;3.878;2023-07-16T12:31:34;27.10;99.90
23283;DHT22;11810;51.178;3.878;2023-07-16T12:34:01;26.50;99.90
23283;DHT22;11810;51.178;3.878;2023-07-16T12:36:30;25.70;99.90
23283;DHT22;11810;51.178;3.878;2023-07-16T12:38:56;26.30;99.90
23283;DHT22;11810;51.178;3.878;2023-07-16T12:41:22;26.20;99.90
23283;DHT22;11810;51.178;3.878;2023-07-16T12:43:48;26.90;99.90
23283;DHT22;11810;51.178;3.878;2023-07-16T12:46:14;26.90;99.90
23283;DHT22;11810;51.178;3.878;2023-07-16T12:48:40;26.50;99.90
23283;DHT22;11810;51.178;3.878;2023-07-16T12:51:06;26.00;99.90
23283;DHT22;11810;51.178;3.878;2023-07-16T12:53:33;26.30;99.90
23283;DHT22;11810;51.178;3.878;2023-07-16T12:55:59;26.40;99.90
23283;DHT22;11810;51.178;3.878;2023-07-16T12:58:24;26.00;99.90
23283;DHT22;11810;51.178;3.878;2023-07-16T13:00:51;25.60;99.90
23283;DHT22;11810;51.178;3.878;2023-07-16T13:03:17;25.20;99.90
23283;DHT22;11810;51.178;3.878;2023-07-16T13:05:43;24.70;99.90
23283;DHT22;11810;51.178;3.878;2023-07-16T13:08:10;24.70;99.90
23283;DHT22;11810;51.178;3.878;2023-07-16T13:10:36;24.70;99.90
23283;DHT22;11810;51.178;3.878;2023-07-16T13:13:03;24.80;99.90
23283;DHT22;11810;51.178;3.878;2023-07-16T13:15:29;25.10;99.90
23283;DHT22;11810;51.178;3.878;2023-07-16T13:17:55;24.80;99.90
23283;DHT22;11810;51.178;3.878;2023-07-16T13:20:21;24.20;99.90
23283;DHT22;11810;51.178;3.878;2023-07-16T13:22:48;24.40;99.90
23283;DHT22;11810;51.178;3.878;2023-07-16T13:25:14;25.20;99.90
23283;DHT22;11810;51.178;3.878;2023-07-16T13:27:40;25.40;99.90
23283;DHT22;11810;51.178;3.878;2023-07-16T13:30:06;25.50;99.90
23283;DHT22;11810;51.178;3.878;2023-07-16T13:32:32;25.10;99.90
23283;DHT22;11810;51.178;3.878;2023-07-16T13:34:59;24.80;99.90
23283;DHT22;11810;51.178;3.878;2023-07-16T13:37:25;24.50;99.90
23283;DHT22;11810;51.178;3.878;2023-07-16T13:39:51;24.90;99.90
23283;DHT22;11810;51.178;3.878;2023-07-16T13:42:16;24.90;99.90
23283;DHT22;11810;51.178;3.878;2023-07-16T13:44:42;24.90;99.90
23283;DHT22;11810;51.178;3.878;2023-07-16T13:47:08;24.80;99.90
23283;DHT22;11810;51.178;3.878;2023-07-16T13:49:34;24.60;99.90
23283;DHT22;11810;51.178;3.878;2023-07-16T13:52:00;24.60;99.90
23283;DHT22;11810;51.178;3.878;2023-07-16T13:54:26;24.60;99.90
23283;DHT22;11810;51.178;3.878;2023-07-16T13:56:52;24.80;99.90
23283;DHT22;11810;51.178;3.878;2023-07-16T13:59:18;25.00;99.90
23283;DHT22;11810;51.178;3.878;2023-07-16T14:01:44;24.90;99.90
23283;DHT22;11810;51.178;3.878;2023-07-16T14:04:10;25.00;99.90
23283;DHT22;11810;51.178;3.878;2023-07-16T14:06:36;25.50;99.90
23283;DHT22;11810;51.178;3.878;2023-07-16T14:09:02;26.30;99.90
23283;DHT22;11810;51.178;3.878;2023-07-16T14:11:30;27.10;99.90
23283;DHT22;11810;51.178;3.878;2023-07-16T14:13:56;27.30;99.90
23283;DHT22;11810;51.178;3.878;2023-07-16T14:16:22;27.30;99.90
23283;DHT22;11810;51.178;3.878;2023-07-16T14:18:52;27.10;99.90
23283;DHT22;11810;51.178;3.878;2023-07-16T14:21:18;27.30;99.90
23283;DHT22;11810;51.178;3.878;2023-07-16T14:23:44;27.90;99.90
23283;DHT22;11810;51.178;3.878;2023-07-16T14:26:10;28.10;99.90
23283;DHT22;11810;51.178;3.878;2023-07-16T14:28:36;28.40;99.90
23283;DHT22;11810;51.178;3.878;2023-07-16T14:31:02;28.80;99.90
23283;DHT22;11810;51.178;3.878;2023-07-16T14:33:28;28.50;99.90
23283;DHT22;11810;51.178;3.878;2023-07-16T14:35:56;27.60;99.90
23283;DHT22;11810;51.178;3.878;2023-07-16T14:38:22;26.70;99.90
23283;DHT22;11810;51.178;3.878;2023-07-16T14:40:48;26.40;99.90
23283;DHT22;11810;51.178;3.878;2023-07-16T14:43:15;26.20;99.90
23283;DHT22;11810;51.178;3.878;2023-07-16T14:45:40;26.20;99.90
23283;DHT22;11810;51.178;3.878;2023-07-16T14:48:06;26.40;99.90
23283;DHT22;11810;51.178;3.878;2023-07-16T14:50:32;26.40;99.90
23283;DHT22;11810;51.178;3.878;2023-07-16T14:52:58;26.30;99.90
23283;DHT22;11810;51.178;3.878;2023-07-16T14:55:24;26.20;99.90
23283;DHT22;11810;51.178;3.878;2023-07-16T14:57:50;26.10;99.90
23283;DHT22;11810;51.178;3.878;2023-07-16T15:00:16;26.30;99.90
23283;DHT22;11810;51.178;3.878;2023-07-16T15:02:42;26.00;99.90
23283;DHT22;11810;51.178;3.878;2023-07-16T15:05:09;26.00;99.90
23283;DHT22;11810;51.178;3.878;2023-07-16T15:07:35;26.00;99.90
23283;DHT22;11810;51.178;3.878;2023-07-16T15:10:05;26.10;99.90
23283;DHT22;11810;51.178;3.878;2023-07-16T15:12:31;25.80;99.90
23283;DHT22;11810;51.178;3.878;2023-07-16T15:14:57;25.40;99.90
23283;DHT22;11810;51.178;3.878;2023-07-16T15:17:23;25.10;99.90
23283;DHT22;11810;51.178;3.878;2023-07-16T15:19:51;24.60;99.90
23283;DHT22;11810;51.178;3.878;2023-07-16T15:22:17;24.00;99.90
23283;DHT22;11810;51.178;3.878;2023-07-16T15:24:49;23.20;99.90
23283;DHT22;11810;51.178;3.878;2023-07-16T15:27:15;22.30;99.90
23283;DHT22;11810;51.178;3.878;2023-07-16T15:29:41;21.40;99.90
23283;DHT22;11810;51.178;3.878;2023-07-16T15:32:08;21.20;99.90
23283;DHT22;11810;51.178;3.878;2023-07-16T15:34:34;21.10;99.90
23283;DHT22;11810;51.178;3.878;2023-07-16T15:37:00;21.00;99.90